sensor_id;sensor_type;location;lat;lon;timestamp;P1;durP1;ratioP1;P2;durP2;ratioP2
19436;SDS011;9854;50.968;4.168;2022-07-29T00:01:17;4.35;;;1.40;;
19436;SDS011;9854;50.968;4.168;2022-07-29T00:03:43;4.82;;;1.52;;
19436;SDS011;9854;50.968;4.168;2022-07-29T00:06:09;1.85;;;1.40;;
19436;SDS011;9854;50.968;4.168;2022-07-29T00:08:34;3.28;;;1.60;;
19436;SDS011;9854;50.968;4.168;2022-07-29T00:11:00;2.45;;;1.23;;
19436;SDS011;9854;50.968;4.168;2022-07-29T00:13:25;4.13;;;1.40;;
19436;SDS011;9854;50.968;4.168;2022-07-29T00:15:51;4.97;;;1.40;;
19436;SDS011;9854;50.968;4.168;2022-07-29T00:18:16;3.80;;;1.50;;
19436;SDS011;9854;50.968;4.168;2022-07-29T00:20:42;4.28;;;1.67;;
19436;SDS011;9854;50.968;4.168;2022-07-29T00:23:08;10.98;;;1.30;;
19436;SDS011;9854;50.968;4.168;2022-07-29T00:25:33;4.10;;;1.42;;
19436;SDS011;9854;50.968;4.168;2022-07-29T00:27:59;13.88;;;1.85;;
19436;SDS011;9854;50.968;4.168;2022-07-29T00:30:25;4.07;;;1.33;;
19436;SDS011;9854;50.968;4.168;2022-07-29T00:32:50;6.05;;;1.55;;
19436;SDS011;9854;50.968;4.168;2022-07-29T00:35:16;3.80;;;1.52;;
19436;SDS011;9854;50.968;4.168;2022-07-29T00:38:00;8.65;;;1.50;;
19436;SDS011;9854;50.968;4.168;2022-07-29T00:40:26;9.20;;;1.60;;
19436;SDS011;9854;50.968;4.168;2022-07-29T00:42:51;6.90;;;1.50;;
19436;SDS011;9854;50.968;4.168;2022-07-29T00:45:18;2.97;;;1.40;;
19436;SDS011;9854;50.968;4.168;2022-07-29T00:47:44;6.93;;;1.40;;
19436;SDS011;9854;50.968;4.168;2022-07-29T00:50:10;3.53;;;1.40;;
19436;SDS011;9854;50.968;4.168;2022-07-29T00:52:38;7.50;;;1.50;;
19436;SDS011;9854;50.968;4.168;2022-07-29T00:55:05;6.20;;;1.67;;
19436;SDS011;9854;50.968;4.168;2022-07-29T00:57:34;6.07;;;1.58;;
19436;SDS011;9854;50.968;4.168;2022-07-29T01:00:01;8.82;;;2.15;;
19436;SDS011;9854;50.968;4.168;2022-07-29T01:02:28;4.50;;;1.70;;
19436;SDS011;9854;50.968;4.168;2022-07-29T01:04:54;4.97;;;1.48;;
19436;SDS011;9854;50.968;4.168;2022-07-29T01:07:21;4.80;;;1.80;;
19436;SDS011;9854;50.968;4.168;2022-07-29T01:09:48;2.88;;;1.40;;
19436;SDS011;9854;50.968;4.168;2022-07-29T01:12:15;6.25;;;1.50;;
19436;SDS011;9854;50.968;4.168;2022-07-29T01:14:44;4.65;;;1.85;;
19436;SDS011;9854;50.968;4.168;2022-07-29T01:17:17;9.13;;;1.80;;
19436;SDS011;9854;50.968;4.168;2022-07-29T01:20:07;6.50;;;1.85;;
19436;SDS011;9854;50.968;4.168;2022-07-29T01:25:17;5.68;;;1.73;;
19436;SDS011;9854;50.968;4.168;2022-07-29T01:30:32;7.90;;;1.88;;
19436;SDS011;9854;50.968;4.168;2022-07-29T01:33:00;4.00;;;1.85;;
19436;SDS011;9854;50.968;4.168;2022-07-29T01:35:38;6.35;;;1.83;;
19436;SDS011;9854;50.968;4.168;2022-07-29T01:38:09;2.20;;;1.98;;
19436;SDS011;9854;50.968;4.168;2022-07-29T01:43:36;5.80;;;1.70;;
19436;SDS011;9854;50.968;4.168;2022-07-29T01:46:33;2.22;;;1.58;;
19436;SDS011;9854;50.968;4.168;2022-07-29T01:49:06;6.15;;;2.22;;
19436;SDS011;9854;50.968;4.168;2022-07-29T01:51:40;4.75;;;1.50;;
19436;SDS011;9854;50.968;4.168;2022-07-29T01:54:22;7.93;;;1.90;;
19436;SDS011;9854;50.968;4.168;2022-07-29T01:56:54;9.60;;;2.22;;
19436;SDS011;9854;50.968;4.168;2022-07-29T01:59:21;6.53;;;1.85;;
19436;SDS011;9854;50.968;4.168;2022-07-29T02:01:49;6.57;;;2.00;;
19436;SDS011;9854;50.968;4.168;2022-07-29T02:04:18;9.18;;;2.25;;
19436;SDS011;9854;50.968;4.168;2022-07-29T02:06:45;4.57;;;2.00;;
19436;SDS011;9854;50.968;4.168;2022-07-29T02:09:14;4.72;;;1.92;;
19436;SDS011;9854;50.968;4.168;2022-07-29T02:11:40;4.05;;;2.00;;
19436;SDS011;9854;50.968;4.168;2022-07-29T02:14:12;9.02;;;2.17;;
19436;SDS011;9854;50.968;4.168;2022-07-29T02:16:40;4.43;;;2.30;;
19436;SDS011;9854;50.968;4.168;2022-07-29T02:19:07;6.72;;;2.30;;
19436;SDS011;9854;50.968;4.168;2022-07-29T02:21:34;2.78;;;2.05;;
19436;SDS011;9854;50.968;4.168;2022-07-29T02:24:01;6.15;;;2.20;;
19436;SDS011;9854;50.968;4.168;2022-07-29T02:26:28;4.40;;;1.80;;
19436;SDS011;9854;50.968;4.168;2022-07-29T02:28:57;7.18;;;2.35;;
19436;SDS011;9854;50.968;4.168;2022-07-29T02:31:25;5.57;;;2.10;;
19436;SDS011;9854;50.968;4.168;2022-07-29T02:33:54;6.20;;;2.45;;
19436;SDS011;9854;50.968;4.168;2022-07-29T02:36:21;2.92;;;2.28;;
19436;SDS011;9854;50.968;4.168;2022-07-29T02:38:48;7.53;;;2.67;;
19436;SDS011;9854;50.968;4.168;2022-07-29T02:41:15;8.02;;;2.60;;
19436;SDS011;9854;50.968;4.168;2022-07-29T02:43:53;9.82;;;2.85;;
19436;SDS011;9854;50.968;4.168;2022-07-29T02:46:28;9.15;;;3.22;;
19436;SDS011;9854;50.968;4.168;2022-07-29T02:48:58;5.53;;;2.72;;
19436;SDS011;9854;50.968;4.168;2022-07-29T02:51:40;5.38;;;2.55;;
19436;SDS011;9854;50.968;4.168;2022-07-29T02:54:09;4.45;;;2.50;;
19436;SDS011;9854;50.968;4.168;2022-07-29T02:56:36;10.90;;;2.88;;
19436;SDS011;9854;50.968;4.168;2022-07-29T02:59:06;3.88;;;2.60;;
19436;SDS011;9854;50.968;4.168;2022-07-29T03:01:35;3.58;;;2.47;;
19436;SDS011;9854;50.968;4.168;2022-07-29T03:04:07;5.03;;;2.55;;
19436;SDS011;9854;50.968;4.168;2022-07-29T03:06:34;6.10;;;2.67;;
19436;SDS011;9854;50.968;4.168;2022-07-29T03:09:02;4.70;;;2.60;;
19436;SDS011;9854;50.968;4.168;2022-07-29T03:11:28;5.63;;;2.08;;
19436;SDS011;9854;50.968;4.168;2022-07-29T03:13:54;6.95;;;2.88;;
19436;SDS011;9854;50.968;4.168;2022-07-29T03:16:21;8.90;;;3.42;;
19436;SDS011;9854;50.968;4.168;2022-07-29T03:18:48;5.20;;;2.92;;
19436;SDS011;9854;50.968;4.168;2022-07-29T03:21:15;6.50;;;2.63;;
19436;SDS011;9854;50.968;4.168;2022-07-29T03:23:44;4.13;;;2.83;;
19436;SDS011;9854;50.968;4.168;2022-07-29T03:26:10;4.57;;;2.65;;
19436;SDS011;9854;50.968;4.168;2022-07-29T03:28:36;3.42;;;2.58;;
19436;SDS011;9854;50.968;4.168;2022-07-29T03:31:02;4.80;;;2.67;;
19436;SDS011;9854;50.968;4.168;2022-07-29T03:33:28;8.00;;;2.55;;
19436;SDS011;9854;50.968;4.168;2022-07-29T03:35:55;6.50;;;3.00;;
19436;SDS011;9854;50.968;4.168;2022-07-29T03:38:21;4.40;;;2.78;;
19436;SDS011;9854;50.968;4.168;2022-07-29T03:40:54;7.20;;;2.60;;
19436;SDS011;9854;50.968;4.168;2022-07-29T03:43:25;7.53;;;2.80;;
19436;SDS011;9854;50.968;4.168;2022-07-29T03:45:56;7.95;;;3.17;;
19436;SDS011;9854;50.968;4.168;2022-07-29T03:48:23;7.60;;;2.60;;
19436;SDS011;9854;50.968;4.168;2022-07-29T03:50:51;6.40;;;3.05;;
19436;SDS011;9854;50.968;4.168;2022-07-29T03:53:17;7.13;;;2.83;;
19436;SDS011;9854;50.968;4.168;2022-07-29T03:55:44;5.00;;;2.90;;
19436;SDS011;9854;50.968;4.168;2022-07-29T03:58:14;7.28;;;3.20;;
19436;SDS011;9854;50.968;4.168;2022-07-29T04:00:41;2.78;;;2.50;;
19436;SDS011;9854;50.968;4.168;2022-07-29T04:03:08;7.00;;;3.25;;
19436;SDS011;9854;50.968;4.168;2022-07-29T04:05:34;4.53;;;3.30;;
19436;SDS011;9854;50.968;4.168;2022-07-29T04:08:00;5.20;;;3.35;;
19436;SDS011;9854;50.968;4.168;2022-07-29T04:10:25;7.03;;;3.17;;
19436;SDS011;9854;50.968;4.168;2022-07-29T04:12:51;9.60;;;3.80;;
19436;SDS011;9854;50.968;4.168;2022-07-29T04:15:17;9.00;;;3.65;;
19436;SDS011;9854;50.968;4.168;2022-07-29T04:17:43;13.57;;;4.10;;
19436;SDS011;9854;50.968;4.168;2022-07-29T04:20:09;6.38;;;3.42;;
19436;SDS011;9854;50.968;4.168;2022-07-29T04:22:38;4.57;;;3.58;;
19436;SDS011;9854;50.968;4.168;2022-07-29T04:25:06;5.38;;;3.40;;
19436;SDS011;9854;50.968;4.168;2022-07-29T04:27:32;3.40;;;3.10;;
19436;SDS011;9854;50.968;4.168;2022-07-29T04:29:58;7.32;;;3.90;;
19436;SDS011;9854;50.968;4.168;2022-07-29T04:32:24;7.10;;;3.85;;
19436;SDS011;9854;50.968;4.168;2022-07-29T04:34:50;7.15;;;3.83;;
19436;SDS011;9854;50.968;4.168;2022-07-29T04:37:16;7.32;;;3.55;;
19436;SDS011;9854;50.968;4.168;2022-07-29T04:39:41;6.53;;;4.10;;
19436;SDS011;9854;50.968;4.168;2022-07-29T04:42:07;4.50;;;3.40;;
19436;SDS011;9854;50.968;4.168;2022-07-29T04:44:33;6.88;;;3.22;;
19436;SDS011;9854;50.968;4.168;2022-07-29T04:46:58;10.63;;;3.60;;
19436;SDS011;9854;50.968;4.168;2022-07-29T04:49:24;9.98;;;3.55;;
19436;SDS011;9854;50.968;4.168;2022-07-29T04:51:49;11.07;;;3.08;;
19436;SDS011;9854;50.968;4.168;2022-07-29T04:54:15;7.90;;;3.50;;
19436;SDS011;9854;50.968;4.168;2022-07-29T04:56:41;9.57;;;3.50;;
19436;SDS011;9854;50.968;4.168;2022-07-29T04:59:06;11.77;;;3.88;;
19436;SDS011;9854;50.968;4.168;2022-07-29T05:01:32;8.73;;;3.40;;
19436;SDS011;9854;50.968;4.168;2022-07-29T05:03:58;7.28;;;3.25;;
19436;SDS011;9854;50.968;4.168;2022-07-29T05:06:24;8.23;;;3.72;;
19436;SDS011;9854;50.968;4.168;2022-07-29T05:08:49;6.85;;;3.78;;
19436;SDS011;9854;50.968;4.168;2022-07-29T05:11:15;6.47;;;3.47;;
19436;SDS011;9854;50.968;4.168;2022-07-29T05:13:41;4.70;;;3.30;;
19436;SDS011;9854;50.968;4.168;2022-07-29T05:16:07;7.35;;;3.28;;
19436;SDS011;9854;50.968;4.168;2022-07-29T05:18:33;10.57;;;3.37;;
19436;SDS011;9854;50.968;4.168;2022-07-29T05:20:59;6.25;;;3.15;;
19436;SDS011;9854;50.968;4.168;2022-07-29T05:23:24;8.38;;;3.28;;
19436;SDS011;9854;50.968;4.168;2022-07-29T05:25:50;5.53;;;3.55;;
19436;SDS011;9854;50.968;4.168;2022-07-29T05:28:16;8.70;;;3.90;;
19436;SDS011;9854;50.968;4.168;2022-07-29T05:30:41;15.30;;;4.30;;
19436;SDS011;9854;50.968;4.168;2022-07-29T05:33:09;5.68;;;3.45;;
19436;SDS011;9854;50.968;4.168;2022-07-29T05:35:35;10.90;;;3.38;;
19436;SDS011;9854;50.968;4.168;2022-07-29T05:38:02;6.07;;;3.28;;
19436;SDS011;9854;50.968;4.168;2022-07-29T05:40:28;7.25;;;3.38;;
19436;SDS011;9854;50.968;4.168;2022-07-29T05:42:54;5.07;;;3.28;;
19436;SDS011;9854;50.968;4.168;2022-07-29T05:45:20;5.32;;;3.38;;
19436;SDS011;9854;50.968;4.168;2022-07-29T05:47:46;6.18;;;3.55;;
19436;SDS011;9854;50.968;4.168;2022-07-29T05:50:11;8.35;;;3.10;;
19436;SDS011;9854;50.968;4.168;2022-07-29T05:52:37;10.15;;;3.72;;
19436;SDS011;9854;50.968;4.168;2022-07-29T05:55:03;7.25;;;3.30;;
19436;SDS011;9854;50.968;4.168;2022-07-29T05:57:30;7.18;;;3.47;;
19436;SDS011;9854;50.968;4.168;2022-07-29T05:59:56;9.63;;;3.53;;
19436;SDS011;9854;50.968;4.168;2022-07-29T06:02:21;10.95;;;4.13;;
19436;SDS011;9854;50.968;4.168;2022-07-29T06:04:47;6.95;;;3.75;;
19436;SDS011;9854;50.968;4.168;2022-07-29T06:07:13;8.82;;;3.80;;
19436;SDS011;9854;50.968;4.168;2022-07-29T06:09:39;8.43;;;3.45;;
19436;SDS011;9854;50.968;4.168;2022-07-29T06:12:04;11.13;;;3.85;;
19436;SDS011;9854;50.968;4.168;2022-07-29T06:14:30;9.48;;;3.25;;
19436;SDS011;9854;50.968;4.168;2022-07-29T06:16:56;12.05;;;3.50;;
19436;SDS011;9854;50.968;4.168;2022-07-29T06:19:22;6.68;;;3.45;;
19436;SDS011;9854;50.968;4.168;2022-07-29T06:21:48;4.18;;;3.15;;
19436;SDS011;9854;50.968;4.168;2022-07-29T06:24:13;6.07;;;3.33;;
19436;SDS011;9854;50.968;4.168;2022-07-29T06:26:40;5.20;;;3.42;;
19436;SDS011;9854;50.968;4.168;2022-07-29T06:29:07;6.85;;;3.55;;
19436;SDS011;9854;50.968;4.168;2022-07-29T06:31:35;9.10;;;3.40;;
19436;SDS011;9854;50.968;4.168;2022-07-29T06:34:01;5.63;;;3.08;;
19436;SDS011;9854;50.968;4.168;2022-07-29T06:36:27;5.07;;;3.05;;
19436;SDS011;9854;50.968;4.168;2022-07-29T06:38:52;12.43;;;3.22;;
19436;SDS011;9854;50.968;4.168;2022-07-29T06:41:18;5.22;;;3.38;;
19436;SDS011;9854;50.968;4.168;2022-07-29T06:43:44;8.55;;;3.15;;
19436;SDS011;9854;50.968;4.168;2022-07-29T06:46:12;3.50;;;2.65;;
19436;SDS011;9854;50.968;4.168;2022-07-29T06:48:42;8.48;;;3.15;;
19436;SDS011;9854;50.968;4.168;2022-07-29T06:51:09;5.43;;;3.47;;
19436;SDS011;9854;50.968;4.168;2022-07-29T06:53:36;6.63;;;3.20;;
19436;SDS011;9854;50.968;4.168;2022-07-29T06:56:02;8.27;;;3.35;;
19436;SDS011;9854;50.968;4.168;2022-07-29T06:58:29;4.05;;;2.67;;
19436;SDS011;9854;50.968;4.168;2022-07-29T07:00:56;8.10;;;3.20;;
19436;SDS011;9854;50.968;4.168;2022-07-29T07:03:23;9.55;;;3.33;;
19436;SDS011;9854;50.968;4.168;2022-07-29T07:05:49;4.78;;;3.30;;
19436;SDS011;9854;50.968;4.168;2022-07-29T07:08:17;7.65;;;3.65;;
19436;SDS011;9854;50.968;4.168;2022-07-29T07:10:44;4.72;;;2.78;;
19436;SDS011;9854;50.968;4.168;2022-07-29T07:13:10;5.28;;;3.30;;
19436;SDS011;9854;50.968;4.168;2022-07-29T07:15:36;7.75;;;3.22;;
19436;SDS011;9854;50.968;4.168;2022-07-29T07:18:02;5.63;;;3.10;;
19436;SDS011;9854;50.968;4.168;2022-07-29T07:20:28;6.47;;;3.47;;
19436;SDS011;9854;50.968;4.168;2022-07-29T07:22:54;7.95;;;3.35;;
19436;SDS011;9854;50.968;4.168;2022-07-29T07:25:20;7.13;;;3.38;;
19436;SDS011;9854;50.968;4.168;2022-07-29T07:27:45;11.65;;;3.38;;
19436;SDS011;9854;50.968;4.168;2022-07-29T07:30:11;10.45;;;3.53;;
19436;SDS011;9854;50.968;4.168;2022-07-29T07:32:38;4.35;;;2.97;;
19436;SDS011;9854;50.968;4.168;2022-07-29T07:35:04;9.63;;;3.92;;
19436;SDS011;9854;50.968;4.168;2022-07-29T07:37:31;11.57;;;3.80;;
19436;SDS011;9854;50.968;4.168;2022-07-29T07:39:57;7.28;;;3.60;;
19436;SDS011;9854;50.968;4.168;2022-07-29T07:42:23;10.85;;;3.38;;
19436;SDS011;9854;50.968;4.168;2022-07-29T07:44:49;10.75;;;3.90;;
19436;SDS011;9854;50.968;4.168;2022-07-29T07:47:14;13.10;;;3.55;;
19436;SDS011;9854;50.968;4.168;2022-07-29T07:49:44;4.20;;;3.67;;
19436;SDS011;9854;50.968;4.168;2022-07-29T07:52:13;5.97;;;3.60;;
19436;SDS011;9854;50.968;4.168;2022-07-29T07:54:40;3.97;;;3.30;;
19436;SDS011;9854;50.968;4.168;2022-07-29T07:57:07;7.38;;;3.95;;
19436;SDS011;9854;50.968;4.168;2022-07-29T07:59:33;9.02;;;3.45;;
19436;SDS011;9854;50.968;4.168;2022-07-29T08:01:59;7.93;;;3.83;;
19436;SDS011;9854;50.968;4.168;2022-07-29T08:04:26;10.20;;;3.85;;
19436;SDS011;9854;50.968;4.168;2022-07-29T08:06:51;6.97;;;4.22;;
19436;SDS011;9854;50.968;4.168;2022-07-29T08:09:19;4.95;;;3.67;;
19436;SDS011;9854;50.968;4.168;2022-07-29T08:11:45;7.18;;;3.70;;
19436;SDS011;9854;50.968;4.168;2022-07-29T08:14:11;8.32;;;3.80;;
19436;SDS011;9854;50.968;4.168;2022-07-29T08:16:38;12.77;;;3.97;;
19436;SDS011;9854;50.968;4.168;2022-07-29T08:19:05;6.35;;;3.58;;
19436;SDS011;9854;50.968;4.168;2022-07-29T08:21:30;6.97;;;4.13;;
19436;SDS011;9854;50.968;4.168;2022-07-29T08:23:56;8.80;;;3.65;;
19436;SDS011;9854;50.968;4.168;2022-07-29T08:26:44;6.72;;;4.10;;
19436;SDS011;9854;50.968;4.168;2022-07-29T08:29:10;8.20;;;4.22;;
19436;SDS011;9854;50.968;4.168;2022-07-29T08:31:37;8.35;;;4.60;;
19436;SDS011;9854;50.968;4.168;2022-07-29T08:34:03;6.05;;;4.10;;
19436;SDS011;9854;50.968;4.168;2022-07-29T08:36:29;5.47;;;3.80;;
19436;SDS011;9854;50.968;4.168;2022-07-29T08:38:55;13.32;;;4.30;;
19436;SDS011;9854;50.968;4.168;2022-07-29T08:41:21;6.15;;;3.65;;
19436;SDS011;9854;50.968;4.168;2022-07-29T08:43:47;12.00;;;4.35;;
19436;SDS011;9854;50.968;4.168;2022-07-29T08:46:14;6.63;;;3.92;;
19436;SDS011;9854;50.968;4.168;2022-07-29T08:48:41;6.95;;;3.78;;
19436;SDS011;9854;50.968;4.168;2022-07-29T08:51:07;10.77;;;4.20;;
19436;SDS011;9854;50.968;4.168;2022-07-29T08:53:37;6.22;;;3.92;;
19436;SDS011;9854;50.968;4.168;2022-07-29T08:56:06;8.05;;;3.65;;
19436;SDS011;9854;50.968;4.168;2022-07-29T08:58:33;4.57;;;4.03;;
19436;SDS011;9854;50.968;4.168;2022-07-29T09:00:59;7.95;;;3.72;;
19436;SDS011;9854;50.968;4.168;2022-07-29T09:03:31;5.25;;;3.50;;
19436;SDS011;9854;50.968;4.168;2022-07-29T09:06:01;8.73;;;3.15;;
19436;SDS011;9854;50.968;4.168;2022-07-29T09:08:27;5.88;;;3.63;;
19436;SDS011;9854;50.968;4.168;2022-07-29T09:10:53;4.45;;;2.70;;
19436;SDS011;9854;50.968;4.168;2022-07-29T09:13:21;5.28;;;3.15;;
19436;SDS011;9854;50.968;4.168;2022-07-29T09:15:47;3.33;;;2.60;;
19436;SDS011;9854;50.968;4.168;2022-07-29T09:18:31;8.45;;;3.67;;
19436;SDS011;9854;50.968;4.168;2022-07-29T09:21:07;5.85;;;3.50;;
19436;SDS011;9854;50.968;4.168;2022-07-29T09:24:08;8.25;;;3.63;;
19436;SDS011;9854;50.968;4.168;2022-07-29T09:26:36;6.75;;;3.58;;
19436;SDS011;9854;50.968;4.168;2022-07-29T09:29:08;10.43;;;3.60;;
19436;SDS011;9854;50.968;4.168;2022-07-29T09:31:36;4.40;;;3.20;;
19436;SDS011;9854;50.968;4.168;2022-07-29T09:34:04;5.80;;;3.08;;
19436;SDS011;9854;50.968;4.168;2022-07-29T09:36:37;11.75;;;3.67;;
19436;SDS011;9854;50.968;4.168;2022-07-29T09:39:07;11.23;;;2.55;;
19436;SDS011;9854;50.968;4.168;2022-07-29T09:41:46;11.90;;;3.58;;
19436;SDS011;9854;50.968;4.168;2022-07-29T09:44:13;7.63;;;3.17;;
19436;SDS011;9854;50.968;4.168;2022-07-29T09:46:40;7.38;;;3.58;;
19436;SDS011;9854;50.968;4.168;2022-07-29T09:49:17;5.20;;;3.65;;
19436;SDS011;9854;50.968;4.168;2022-07-29T09:51:43;12.30;;;3.85;;
19436;SDS011;9854;50.968;4.168;2022-07-29T09:54:27;13.23;;;3.08;;
19436;SDS011;9854;50.968;4.168;2022-07-29T09:56:53;9.82;;;3.35;;
19436;SDS011;9854;50.968;4.168;2022-07-29T09:59:19;6.75;;;2.80;;
19436;SDS011;9854;50.968;4.168;2022-07-29T10:01:47;3.53;;;2.67;;
19436;SDS011;9854;50.968;4.168;2022-07-29T10:04:15;12.23;;;2.65;;
19436;SDS011;9854;50.968;4.168;2022-07-29T10:06:59;9.13;;;2.60;;
19436;SDS011;9854;50.968;4.168;2022-07-29T10:09:27;8.25;;;2.33;;
19436;SDS011;9854;50.968;4.168;2022-07-29T10:14:51;6.65;;;2.60;;
19436;SDS011;9854;50.968;4.168;2022-07-29T10:17:17;11.05;;;1.98;;
19436;SDS011;9854;50.968;4.168;2022-07-29T10:19:44;7.55;;;2.38;;
19436;SDS011;9854;50.968;4.168;2022-07-29T10:22:10;7.40;;;2.38;;
19436;SDS011;9854;50.968;4.168;2022-07-29T10:24:37;9.18;;;2.50;;
19436;SDS011;9854;50.968;4.168;2022-07-29T10:27:04;11.98;;;2.17;;
19436;SDS011;9854;50.968;4.168;2022-07-29T10:29:31;4.35;;;2.00;;
19436;SDS011;9854;50.968;4.168;2022-07-29T10:32:06;5.93;;;2.53;;
19436;SDS011;9854;50.968;4.168;2022-07-29T10:38:15;5.03;;;1.85;;
19436;SDS011;9854;50.968;4.168;2022-07-29T10:43:36;6.30;;;1.98;;
19436;SDS011;9854;50.968;4.168;2022-07-29T10:46:06;4.35;;;2.17;;
19436;SDS011;9854;50.968;4.168;2022-07-29T10:48:32;5.88;;;2.40;;
19436;SDS011;9854;50.968;4.168;2022-07-29T10:50:59;6.32;;;1.83;;
19436;SDS011;9854;50.968;4.168;2022-07-29T11:02:01;4.88;;;2.78;;
19436;SDS011;9854;50.968;4.168;2022-07-29T11:07:08;6.90;;;1.98;;
19436;SDS011;9854;50.968;4.168;2022-07-29T11:09:34;4.00;;;1.77;;
19436;SDS011;9854;50.968;4.168;2022-07-29T11:12:00;5.03;;;1.50;;
19436;SDS011;9854;50.968;4.168;2022-07-29T11:17:16;6.53;;;2.03;;
19436;SDS011;9854;50.968;4.168;2022-07-29T11:19:42;3.10;;;1.90;;
19436;SDS011;9854;50.968;4.168;2022-07-29T11:22:09;6.82;;;1.83;;
19436;SDS011;9854;50.968;4.168;2022-07-29T11:24:36;10.75;;;2.08;;
19436;SDS011;9854;50.968;4.168;2022-07-29T11:27:15;9.77;;;1.95;;
19436;SDS011;9854;50.968;4.168;2022-07-29T11:29:48;5.88;;;1.83;;
19436;SDS011;9854;50.968;4.168;2022-07-29T11:32:18;1.80;;;1.33;;
19436;SDS011;9854;50.968;4.168;2022-07-29T11:34:45;9.98;;;1.50;;
19436;SDS011;9854;50.968;4.168;2022-07-29T11:37:14;2.38;;;1.73;;
19436;SDS011;9854;50.968;4.168;2022-07-29T11:42:53;4.22;;;1.67;;
19436;SDS011;9854;50.968;4.168;2022-07-29T11:47:27;5.15;;;1.38;;
19436;SDS011;9854;50.968;4.168;2022-07-29T11:49:54;6.28;;;1.70;;
19436;SDS011;9854;50.968;4.168;2022-07-29T11:52:22;6.55;;;1.90;;
19436;SDS011;9854;50.968;4.168;2022-07-29T11:54:49;9.82;;;1.70;;
19436;SDS011;9854;50.968;4.168;2022-07-29T11:57:18;4.90;;;1.77;;
19436;SDS011;9854;50.968;4.168;2022-07-29T11:59:46;8.40;;;2.00;;
19436;SDS011;9854;50.968;4.168;2022-07-29T12:02:12;3.03;;;1.35;;
19436;SDS011;9854;50.968;4.168;2022-07-29T12:04:51;6.30;;;1.70;;
19436;SDS011;9854;50.968;4.168;2022-07-29T12:07:26;4.40;;;1.70;;
19436;SDS011;9854;50.968;4.168;2022-07-29T12:09:54;4.72;;;1.70;;
19436;SDS011;9854;50.968;4.168;2022-07-29T12:12:20;2.75;;;1.45;;
19436;SDS011;9854;50.968;4.168;2022-07-29T12:14:47;2.22;;;1.15;;
19436;SDS011;9854;50.968;4.168;2022-07-29T12:17:29;6.63;;;1.60;;
19436;SDS011;9854;50.968;4.168;2022-07-29T12:19:56;6.38;;;1.20;;
19436;SDS011;9854;50.968;4.168;2022-07-29T12:22:30;5.95;;;1.80;;
19436;SDS011;9854;50.968;4.168;2022-07-29T12:25:05;3.17;;;1.55;;
19436;SDS011;9854;50.968;4.168;2022-07-29T12:27:33;3.80;;;1.75;;
19436;SDS011;9854;50.968;4.168;2022-07-29T12:29:59;4.55;;;1.40;;
19436;SDS011;9854;50.968;4.168;2022-07-29T12:35:21;3.75;;;1.45;;
19436;SDS011;9854;50.968;4.168;2022-07-29T12:37:47;6.35;;;1.40;;
19436;SDS011;9854;50.968;4.168;2022-07-29T12:40:16;7.70;;;1.35;;
19436;SDS011;9854;50.968;4.168;2022-07-29T12:45:34;5.85;;;1.45;;
19436;SDS011;9854;50.968;4.168;2022-07-29T12:48:01;7.10;;;1.45;;
19436;SDS011;9854;50.968;4.168;2022-07-29T12:50:27;6.80;;;1.63;;
19436;SDS011;9854;50.968;4.168;2022-07-29T12:53:07;5.22;;;1.48;;
19436;SDS011;9854;50.968;4.168;2022-07-29T12:55:38;4.03;;;1.40;;
19436;SDS011;9854;50.968;4.168;2022-07-29T12:58:05;5.78;;;1.90;;
19436;SDS011;9854;50.968;4.168;2022-07-29T13:00:30;3.85;;;1.67;;
19436;SDS011;9854;50.968;4.168;2022-07-29T13:02:56;4.57;;;1.33;;
19436;SDS011;9854;50.968;4.168;2022-07-29T13:05:23;10.23;;;1.90;;
19436;SDS011;9854;50.968;4.168;2022-07-29T13:07:49;2.33;;;1.13;;
19436;SDS011;9854;50.968;4.168;2022-07-29T13:15:28;7.63;;;1.88;;
19436;SDS011;9854;50.968;4.168;2022-07-29T13:17:54;2.58;;;1.60;;
19436;SDS011;9854;50.968;4.168;2022-07-29T13:20:23;8.82;;;1.30;;
19436;SDS011;9854;50.968;4.168;2022-07-29T13:22:52;4.45;;;1.40;;
19436;SDS011;9854;50.968;4.168;2022-07-29T13:25:39;7.93;;;1.67;;
19436;SDS011;9854;50.968;4.168;2022-07-29T13:28:05;4.35;;;1.50;;
19436;SDS011;9854;50.968;4.168;2022-07-29T13:30:31;5.15;;;1.30;;
19436;SDS011;9854;50.968;4.168;2022-07-29T13:32:56;2.15;;;1.20;;
19436;SDS011;9854;50.968;4.168;2022-07-29T13:35:22;5.57;;;1.30;;
19436;SDS011;9854;50.968;4.168;2022-07-29T13:37:48;3.65;;;1.65;;
19436;SDS011;9854;50.968;4.168;2022-07-29T13:40:13;3.92;;;1.33;;
19436;SDS011;9854;50.968;4.168;2022-07-29T13:42:39;4.53;;;1.75;;
19436;SDS011;9854;50.968;4.168;2022-07-29T13:45:06;9.38;;;1.85;;
19436;SDS011;9854;50.968;4.168;2022-07-29T13:47:32;6.72;;;1.23;;
19436;SDS011;9854;50.968;4.168;2022-07-29T13:49:58;5.00;;;1.40;;
19436;SDS011;9854;50.968;4.168;2022-07-29T13:52:27;6.65;;;1.38;;
19436;SDS011;9854;50.968;4.168;2022-07-29T13:54:53;7.20;;;1.20;;
19436;SDS011;9854;50.968;4.168;2022-07-29T13:57:19;3.40;;;1.40;;
19436;SDS011;9854;50.968;4.168;2022-07-29T13:59:44;4.20;;;1.40;;
19436;SDS011;9854;50.968;4.168;2022-07-29T14:02:10;5.55;;;1.60;;
19436;SDS011;9854;50.968;4.168;2022-07-29T14:04:37;9.70;;;1.88;;
19436;SDS011;9854;50.968;4.168;2022-07-29T14:07:03;3.70;;;1.83;;
19436;SDS011;9854;50.968;4.168;2022-07-29T14:09:29;9.18;;;1.85;;
19436;SDS011;9854;50.968;4.168;2022-07-29T14:11:55;4.70;;;2.75;;
19436;SDS011;9854;50.968;4.168;2022-07-29T14:14:21;4.13;;;2.05;;
19436;SDS011;9854;50.968;4.168;2022-07-29T14:16:46;6.78;;;1.90;;
19436;SDS011;9854;50.968;4.168;2022-07-29T14:19:12;7.22;;;2.20;;
19436;SDS011;9854;50.968;4.168;2022-07-29T14:21:38;4.45;;;1.67;;
19436;SDS011;9854;50.968;4.168;2022-07-29T14:24:04;5.13;;;1.55;;
19436;SDS011;9854;50.968;4.168;2022-07-29T14:26:31;9.63;;;2.47;;
19436;SDS011;9854;50.968;4.168;2022-07-29T14:28:56;6.10;;;2.28;;
19436;SDS011;9854;50.968;4.168;2022-07-29T14:31:22;4.15;;;2.25;;
19436;SDS011;9854;50.968;4.168;2022-07-29T14:33:48;6.20;;;2.90;;
19436;SDS011;9854;50.968;4.168;2022-07-29T14:36:13;6.15;;;2.08;;
19436;SDS011;9854;50.968;4.168;2022-07-29T14:38:39;3.33;;;2.47;;
19436;SDS011;9854;50.968;4.168;2022-07-29T14:41:05;14.05;;;3.55;;
19436;SDS011;9854;50.968;4.168;2022-07-29T14:43:32;5.60;;;2.33;;
19436;SDS011;9854;50.968;4.168;2022-07-29T14:45:59;5.72;;;2.30;;
19436;SDS011;9854;50.968;4.168;2022-07-29T14:48:25;6.80;;;2.75;;
19436;SDS011;9854;50.968;4.168;2022-07-29T14:50:50;5.15;;;1.80;;
19436;SDS011;9854;50.968;4.168;2022-07-29T14:53:16;5.78;;;2.78;;
19436;SDS011;9854;50.968;4.168;2022-07-29T14:55:42;5.68;;;2.72;;
19436;SDS011;9854;50.968;4.168;2022-07-29T14:58:09;5.22;;;1.98;;
19436;SDS011;9854;50.968;4.168;2022-07-29T15:00:35;7.55;;;2.15;;
19436;SDS011;9854;50.968;4.168;2022-07-29T15:03:01;6.93;;;2.20;;
19436;SDS011;9854;50.968;4.168;2022-07-29T15:05:28;5.18;;;1.90;;
19436;SDS011;9854;50.968;4.168;2022-07-29T15:07:55;4.20;;;1.80;;
19436;SDS011;9854;50.968;4.168;2022-07-29T15:10:20;5.00;;;2.17;;
19436;SDS011;9854;50.968;4.168;2022-07-29T15:12:46;4.70;;;1.70;;
19436;SDS011;9854;50.968;4.168;2022-07-29T15:15:12;5.45;;;1.80;;
19436;SDS011;9854;50.968;4.168;2022-07-29T15:17:37;4.70;;;1.98;;
19436;SDS011;9854;50.968;4.168;2022-07-29T15:20:03;6.68;;;2.33;;
19436;SDS011;9854;50.968;4.168;2022-07-29T15:22:29;3.50;;;2.22;;
19436;SDS011;9854;50.968;4.168;2022-07-29T15:24:55;7.68;;;2.80;;
19436;SDS011;9854;50.968;4.168;2022-07-29T15:27:21;9.15;;;2.50;;
19436;SDS011;9854;50.968;4.168;2022-07-29T15:29:46;11.00;;;2.63;;
19436;SDS011;9854;50.968;4.168;2022-07-29T15:32:12;5.90;;;2.15;;
19436;SDS011;9854;50.968;4.168;2022-07-29T15:34:38;8.00;;;2.13;;
19436;SDS011;9854;50.968;4.168;2022-07-29T15:37:04;4.05;;;1.52;;
19436;SDS011;9854;50.968;4.168;2022-07-29T15:39:30;3.45;;;1.42;;
19436;SDS011;9854;50.968;4.168;2022-07-29T15:41:56;6.53;;;1.85;;
19436;SDS011;9854;50.968;4.168;2022-07-29T15:44:24;7.95;;;2.00;;
19436;SDS011;9854;50.968;4.168;2022-07-29T15:46:50;3.58;;;1.92;;
19436;SDS011;9854;50.968;4.168;2022-07-29T15:49:32;3.30;;;1.67;;
19436;SDS011;9854;50.968;4.168;2022-07-29T15:52:00;5.28;;;1.67;;